createdAt,value
2024-02-14T00:00:42.508Z,6.64
2024-02-14T00:03:28.258Z,6.62
2024-02-14T00:06:14.652Z,6.58
2024-02-14T00:09:00.264Z,6.57
2024-02-14T00:11:45.729Z,6.53
2024-02-14T00:14:31.179Z,6.54
2024-02-14T00:17:16.692Z,6.50
2024-02-14T00:20:04.330Z,6.51
2024-02-14T00:22:49.584Z,6.51
2024-02-14T00:25:35.512Z,6.50
2024-02-14T00:28:21.038Z,6.50
2024-02-14T00:31:07.590Z,6.50
2024-02-14T00:36:38.464Z,6.48
2024-02-14T00:39:24.130Z,6.47
2024-02-14T00:42:09.636Z,6.45
2024-02-14T00:44:55.132Z,6.39
2024-02-14T00:47:40.914Z,6.35
2024-02-14T00:50:26.914Z,6.31
2024-02-14T00:53:12.415Z,6.24
2024-02-14T00:55:57.991Z,6.17
2024-02-14T00:58:43.636Z,6.07
2024-02-14T01:01:29.394Z,6.02
2024-02-14T01:04:14.959Z,6.03
2024-02-14T01:07:00.395Z,6.05
2024-02-14T01:09:45.903Z,6.07
2024-02-14T01:12:31.440Z,6.10
2024-02-14T01:15:17.063Z,6.13
2024-02-14T01:18:02.589Z,6.14
2024-02-14T01:20:48.235Z,6.16
2024-02-14T01:23:33.567Z,6.12
2024-02-14T01:26:19.071Z,6.07
2024-02-14T01:29:06.929Z,6.06
2024-02-14T01:31:52.574Z,6.08
2024-02-14T01:34:38.306Z,6.12
2024-02-14T01:37:23.837Z,6.27
2024-02-14T01:40:09.960Z,6.38
2024-02-14T01:42:56.684Z,6.40
2024-02-14T01:45:42.874Z,6.42
2024-02-14T01:48:28.640Z,6.46
2024-02-14T01:51:18.788Z,6.47
2024-02-14T01:54:04.856Z,6.50
2024-02-14T01:56:50.355Z,6.60
2024-02-14T01:59:36.812Z,6.77
2024-02-14T02:02:22.151Z,6.95
2024-02-14T02:05:08.303Z,7.02
2024-02-14T02:07:55.411Z,7.03
2024-02-14T02:10:41.357Z,7.02
2024-02-14T02:13:27.199Z,7.02
2024-02-14T02:16:13.887Z,7.01
2024-02-14T02:18:59.779Z,6.95
2024-02-14T02:21:49.172Z,7.20
2024-02-14T02:24:34.974Z,7.36
2024-02-14T02:27:20.492Z,7.45
2024-02-14T02:30:07.722Z,7.46
2024-02-14T02:32:53.427Z,7.41
2024-02-14T02:35:43.436Z,7.24
2024-02-14T02:38:29.618Z,7.27
2024-02-14T02:41:16.833Z,7.29
2024-02-14T02:44:03.064Z,7.33
2024-02-14T02:46:48.512Z,7.35
2024-02-14T02:49:34.178Z,7.37
2024-02-14T02:52:19.553Z,7.39
2024-02-14T02:55:06.357Z,7.37
2024-02-14T02:57:53.843Z,7.44
2024-02-14T03:00:39.318Z,7.46
2024-02-14T03:03:29.288Z,7.57
2024-02-14T03:06:15.252Z,7.69
2024-02-14T03:09:01.137Z,7.82
2024-02-14T03:11:50.336Z,7.93
2024-02-14T03:14:37.399Z,8.03
2024-02-14T03:17:23.182Z,8.10
2024-02-14T03:20:16.088Z,8.10
2024-02-14T03:23:05.354Z,8.09
2024-02-14T03:25:52.761Z,8.18
2024-02-14T03:28:38.636Z,8.14
2024-02-14T03:31:24.120Z,8.15
2024-02-14T03:34:09.726Z,8.17
2024-02-14T03:36:55.369Z,8.18
2024-02-14T03:39:40.912Z,8.23
2024-02-14T03:42:27.508Z,8.23
2024-02-14T03:45:13.313Z,8.20
2024-02-14T03:47:59.034Z,8.18
2024-02-14T03:50:45.176Z,8.23
2024-02-14T03:53:30.879Z,8.24
2024-02-14T03:56:17.518Z,8.21
2024-02-14T03:59:04.097Z,8.08
2024-02-14T04:01:49.556Z,7.91
2024-02-14T04:04:36.376Z,7.75
2024-02-14T04:07:22.967Z,7.63
2024-02-14T04:10:08.952Z,7.50
2024-02-14T04:12:54.518Z,7.37
2024-02-14T04:15:39.973Z,7.26
2024-02-14T04:18:25.673Z,7.24
2024-02-14T04:21:11.746Z,7.15
2024-02-14T04:23:57.941Z,7.04
2024-02-14T04:26:43.390Z,6.95
2024-02-14T04:29:31.552Z,6.83
2024-02-14T04:32:17.085Z,6.74
2024-02-14T04:35:03.108Z,6.68
2024-02-14T04:37:50.306Z,6.63
2024-02-14T04:40:35.964Z,6.62
2024-02-14T04:43:21.437Z,6.64
2024-02-14T04:46:08.260Z,6.69
2024-02-14T04:48:54.946Z,6.77
2024-02-14T04:51:40.681Z,7.06
2024-02-14T04:54:27.556Z,7.40
2024-02-14T04:57:13.995Z,7.62
2024-02-14T04:59:59.598Z,7.75
2024-02-14T05:02:44.976Z,7.78
2024-02-14T05:05:30.660Z,7.84
2024-02-14T05:08:17.090Z,7.86
2024-02-14T05:11:02.820Z,7.93
2024-02-14T05:13:48.517Z,8.03
2024-02-14T05:16:34.201Z,8.09
2024-02-14T05:19:22.610Z,8.11
2024-02-14T05:22:08.193Z,8.21
2024-02-14T05:24:53.705Z,8.26
2024-02-14T05:27:39.331Z,8.26
2024-02-14T05:30:26.033Z,8.41
2024-02-14T05:33:12.514Z,8.56
2024-02-14T05:35:58.259Z,8.61
2024-02-14T05:38:44.775Z,8.66
2024-02-14T05:41:31.748Z,8.72
2024-02-14T05:44:17.499Z,8.76
2024-02-14T05:47:02.980Z,8.77
2024-02-14T05:49:48.606Z,8.75
2024-02-14T05:52:34.456Z,8.73
2024-02-14T05:55:19.960Z,8.66
2024-02-14T05:58:05.701Z,8.56
2024-02-14T06:00:51.378Z,8.48
2024-02-14T06:03:37.342Z,8.52
2024-02-14T06:06:22.673Z,8.51
2024-02-14T06:09:11.548Z,8.46
2024-02-14T06:11:57.205Z,8.54
2024-02-14T06:14:42.643Z,8.53
2024-02-14T06:17:28.122Z,8.46
2024-02-14T06:20:14.073Z,8.40
2024-02-14T06:23:05.068Z,8.38
2024-02-14T06:25:51.596Z,8.33
2024-02-14T06:28:37.309Z,8.34
2024-02-14T06:31:24.339Z,8.28
2024-02-14T06:34:10.308Z,8.21
2024-02-14T06:36:56.259Z,8.17
2024-02-14T06:39:41.923Z,8.17
2024-02-14T06:42:27.838Z,8.13
2024-02-14T06:45:13.286Z,8.12
2024-02-14T06:47:59.078Z,8.15
2024-02-14T06:50:44.870Z,8.10
2024-02-14T06:53:30.315Z,8.12
2024-02-14T06:56:16.112Z,8.20
2024-02-14T06:59:01.808Z,8.29
2024-02-14T07:01:47.359Z,8.39
2024-02-14T07:04:33.210Z,8.40
2024-02-14T07:07:18.908Z,8.39
2024-02-14T07:10:04.467Z,8.31
2024-02-14T07:12:50.313Z,8.23
2024-02-14T07:15:35.993Z,8.26
2024-02-14T07:18:22.014Z,8.35
2024-02-14T07:21:08.215Z,8.52
2024-02-14T07:23:55.032Z,8.60
2024-02-14T07:26:42.549Z,8.59
2024-02-14T07:29:28.665Z,8.63
2024-02-14T07:32:14.133Z,8.65
2024-02-14T07:34:59.542Z,8.60
2024-02-14T07:37:45.001Z,8.54
2024-02-14T07:40:32.303Z,8.48
2024-02-14T07:43:17.896Z,8.45
2024-02-14T07:46:03.423Z,8.37
2024-02-14T07:48:50.185Z,8.37
2024-02-14T07:51:38.225Z,8.38
2024-02-14T07:54:23.633Z,8.37
2024-02-14T07:57:09.229Z,8.33
2024-02-14T07:59:55.090Z,8.32
2024-02-14T08:02:40.559Z,8.29
2024-02-14T08:05:26.649Z,8.25
2024-02-14T08:08:12.207Z,8.21
2024-02-14T08:10:57.845Z,8.18
2024-02-14T08:13:43.303Z,8.15
2024-02-14T08:16:29.046Z,8.23
2024-02-14T08:19:15.507Z,8.26
2024-02-14T08:22:01.853Z,8.28
2024-02-14T08:24:47.203Z,8.33
2024-02-14T08:27:32.921Z,8.38
2024-02-14T08:30:18.734Z,8.48
2024-02-14T08:33:04.563Z,8.61
2024-02-14T08:35:50.190Z,8.71
2024-02-14T08:38:39.299Z,8.75
2024-02-14T08:41:24.868Z,8.75
2024-02-14T08:44:10.324Z,8.82
2024-02-14T08:46:56.247Z,8.93
2024-02-14T08:49:43.436Z,8.97
2024-02-14T08:52:29.724Z,8.99
2024-02-14T08:55:20.023Z,9.01
2024-02-14T08:58:05.774Z,9.07
2024-02-14T09:01:01.721Z,9.16
2024-02-14T09:03:51.446Z,9.41
2024-02-14T09:06:38.515Z,9.57
2024-02-14T09:09:24.477Z,9.73
2024-02-14T09:12:10.063Z,9.91
2024-02-14T09:14:55.549Z,10.01
2024-02-14T09:17:42.205Z,10.13
2024-02-14T09:20:28.023Z,10.17
2024-02-14T09:23:21.851Z,10.24
2024-02-14T09:26:08.085Z,10.30
2024-02-14T09:28:53.952Z,10.39
2024-02-14T09:31:39.735Z,10.46
2024-02-14T09:34:26.766Z,10.47
2024-02-14T09:37:12.719Z,10.46
2024-02-14T09:39:58.816Z,10.45
2024-02-14T09:42:59.496Z,10.45
2024-02-14T09:45:46.149Z,10.45
2024-02-14T09:48:32.220Z,10.51
2024-02-14T09:51:17.770Z,10.56
2024-02-14T09:54:05.046Z,10.62
2024-02-14T09:56:55.290Z,10.68
2024-02-14T09:59:41.473Z,10.70
2024-02-14T10:02:27.283Z,10.70
2024-02-14T10:05:13.249Z,10.67
2024-02-14T10:07:59.358Z,10.70
2024-02-14T10:10:47.279Z,10.73
2024-02-14T10:13:36.628Z,10.77
2024-02-14T10:16:24.348Z,10.82
2024-02-14T10:19:20.963Z,10.92
2024-02-14T10:22:07.060Z,10.98
2024-02-14T10:24:53.295Z,11.03
2024-02-14T10:27:40.080Z,11.07
2024-02-14T10:30:26.277Z,11.14
2024-02-14T10:33:20.302Z,11.23
2024-02-14T10:36:13.612Z,11.31
2024-02-14T10:38:59.873Z,11.38
2024-02-14T10:41:45.512Z,11.46
2024-02-14T10:44:31.820Z,11.55
2024-02-14T10:47:22.164Z,11.65
2024-02-14T10:50:08.833Z,11.71
2024-02-14T10:52:58.941Z,11.76
2024-02-14T10:55:48.856Z,11.86
2024-02-14T10:58:36.260Z,11.96
2024-02-14T11:01:23.946Z,12.07
2024-02-14T11:04:10.007Z,12.18
2024-02-14T11:06:58.304Z,12.27
2024-02-14T11:09:43.853Z,12.35
2024-02-14T11:12:37.801Z,12.43
2024-02-14T11:15:26.673Z,12.44
2024-02-14T11:18:12.534Z,12.49
2024-02-14T11:21:01.361Z,12.49
2024-02-14T11:23:56.427Z,12.53
2024-02-14T11:26:53.553Z,12.60
2024-02-14T11:29:53.203Z,12.69
2024-02-14T11:32:43.629Z,12.76
2024-02-14T11:35:29.795Z,12.82
2024-02-14T11:38:15.761Z,12.89
2024-02-14T11:41:01.374Z,12.92
2024-02-14T11:43:53.344Z,12.98
2024-02-14T11:46:39.168Z,12.95
2024-02-14T11:49:25.267Z,12.96
2024-02-14T11:52:12.691Z,12.97
2024-02-14T11:55:00.961Z,12.94
2024-02-14T11:57:49.337Z,12.96
2024-02-14T12:00:37.177Z,12.97
2024-02-14T12:03:29.855Z,12.92
2024-02-14T12:06:16.859Z,12.79
2024-02-14T12:09:06.391Z,12.71
2024-02-14T12:11:52.482Z,12.65
2024-02-14T12:14:38.573Z,12.64
2024-02-14T12:17:24.086Z,12.72
2024-02-14T12:20:15.178Z,12.81
2024-02-14T12:23:01.486Z,12.88
2024-02-14T12:25:50.954Z,12.92
2024-02-14T12:28:38.015Z,12.93
2024-02-14T12:31:24.871Z,12.94
2024-02-14T12:34:12.975Z,12.96
2024-02-14T12:36:58.877Z,12.93
2024-02-14T12:39:44.477Z,12.93
2024-02-14T12:42:29.964Z,12.90
2024-02-14T12:45:16.595Z,12.91
2024-02-14T12:48:02.571Z,12.86
2024-02-14T12:50:50.463Z,12.88
2024-02-14T12:53:35.912Z,12.86
2024-02-14T12:56:21.491Z,12.85
2024-02-14T12:59:07.468Z,12.89
2024-02-14T13:01:53.014Z,12.93
2024-02-14T13:04:38.814Z,12.96
2024-02-14T13:07:24.527Z,12.98
2024-02-14T13:10:13.157Z,12.97
2024-02-14T13:13:00.811Z,12.94
2024-02-14T13:15:46.941Z,12.98
2024-02-14T13:18:32.709Z,13.01
2024-02-14T13:21:19.071Z,13.02
2024-02-14T13:24:05.333Z,13.03
2024-02-14T13:26:50.824Z,12.99
2024-02-14T13:29:36.710Z,12.96
2024-02-14T13:32:22.074Z,12.94
2024-02-14T13:35:08.206Z,12.91
2024-02-14T13:37:54.136Z,12.91
2024-02-14T13:40:39.838Z,12.86
2024-02-14T13:43:26.324Z,12.84
2024-02-14T13:46:12.157Z,12.82
2024-02-14T13:48:57.977Z,12.83
2024-02-14T13:51:43.872Z,12.83
2024-02-14T13:54:29.300Z,12.86
2024-02-14T13:57:15.219Z,12.94
2024-02-14T14:00:01.323Z,13.00
2024-02-14T14:02:47.095Z,13.09
2024-02-14T14:05:32.972Z,13.14
2024-02-14T14:08:18.951Z,13.21
2024-02-14T14:11:04.940Z,13.26
2024-02-14T14:13:50.800Z,13.29
2024-02-14T14:16:36.620Z,13.32
2024-02-14T14:19:22.378Z,13.40
2024-02-14T14:22:08.135Z,13.45
2024-02-14T14:24:56.958Z,13.49
2024-02-14T14:27:44.350Z,13.53
2024-02-14T14:30:30.032Z,13.50
2024-02-14T14:33:18.048Z,13.44
2024-02-14T14:36:10.275Z,13.40
2024-02-14T14:38:56.265Z,13.36
2024-02-14T14:41:43.271Z,13.30
2024-02-14T14:44:29.332Z,13.26
2024-02-14T14:47:15.324Z,13.18
2024-02-14T14:50:01.327Z,13.14
2024-02-14T14:52:47.360Z,13.09
2024-02-14T14:55:55.892Z,13.02
2024-02-14T14:58:43.773Z,12.96
2024-02-14T15:01:29.253Z,12.93
2024-02-14T15:04:14.867Z,12.88
2024-02-14T15:07:00.556Z,12.83
2024-02-14T15:09:46.410Z,12.80
2024-02-14T15:12:32.768Z,12.77
2024-02-14T15:15:20.676Z,12.71
2024-02-14T15:18:07.486Z,12.65
2024-02-14T15:20:53.401Z,12.58
2024-02-14T15:23:39.215Z,12.53
2024-02-14T15:26:25.883Z,12.44
2024-02-14T15:29:30.004Z,12.40
2024-02-14T15:32:34.459Z,12.33
2024-02-14T15:35:20.570Z,12.26
2024-02-14T15:38:06.713Z,12.24
2024-02-14T15:40:58.267Z,12.23
2024-02-14T15:43:47.296Z,12.21
2024-02-14T15:46:32.951Z,12.16
2024-02-14T15:49:18.626Z,12.13
2024-02-14T15:52:06.034Z,12.08
2024-02-14T15:54:53.656Z,12.06
2024-02-14T15:57:41.626Z,12.06
2024-02-14T16:00:28.199Z,12.06
2024-02-14T16:03:13.770Z,12.06
2024-02-14T16:05:59.305Z,12.04
2024-02-14T16:08:44.967Z,12.03
2024-02-14T16:11:32.173Z,12.02
2024-02-14T16:14:18.317Z,11.97
2024-02-14T16:17:03.887Z,11.94
2024-02-14T16:19:49.552Z,11.91
2024-02-14T16:22:35.882Z,11.93
2024-02-14T16:25:21.632Z,11.92
2024-02-14T16:28:08.371Z,11.92
2024-02-14T16:30:54.250Z,11.90
2024-02-14T16:33:40.210Z,11.88
2024-02-14T16:36:26.142Z,11.85
2024-02-14T16:39:17.841Z,11.84
2024-02-14T16:42:07.001Z,11.80
2024-02-14T16:44:53.691Z,11.76
2024-02-14T16:47:43.804Z,11.74
2024-02-14T16:50:32.184Z,11.71
2024-02-14T16:53:17.679Z,11.69
2024-02-14T16:56:03.821Z,11.69
2024-02-14T16:58:49.445Z,11.66
2024-02-14T17:01:35.041Z,11.66
2024-02-14T17:04:20.994Z,11.65
2024-02-14T17:07:07.293Z,11.65
2024-02-14T17:09:53.014Z,11.63
2024-02-14T17:12:38.639Z,11.61
2024-02-14T17:15:24.356Z,11.56
2024-02-14T17:18:10.757Z,11.51
2024-02-14T17:20:56.248Z,11.46
2024-02-14T17:23:42.129Z,11.39
2024-02-14T17:26:28.038Z,11.32
2024-02-14T17:29:14.775Z,11.25
2024-02-14T17:32:00.716Z,11.19
2024-02-14T17:34:46.360Z,11.08
2024-02-14T17:37:31.908Z,10.91
2024-02-14T17:40:17.727Z,10.72
2024-02-14T17:43:03.511Z,10.53
2024-02-14T17:45:49.397Z,10.37
2024-02-14T17:48:35.105Z,10.25
2024-02-14T17:51:21.715Z,10.17
2024-02-14T17:54:07.776Z,10.12
2024-02-14T17:56:53.530Z,10.05
2024-02-14T17:59:39.515Z,9.99
2024-02-14T18:02:25.452Z,9.95
2024-02-14T18:05:11.122Z,9.93
2024-02-14T18:07:56.719Z,9.90
2024-02-14T18:10:44.905Z,9.87
2024-02-14T18:13:30.420Z,9.84
2024-02-14T18:16:15.872Z,9.81
2024-02-14T18:19:01.769Z,9.80
2024-02-14T18:21:47.942Z,9.78
2024-02-14T18:24:33.591Z,9.76
2024-02-14T18:27:20.637Z,9.73
2024-02-14T18:30:07.593Z,9.74
2024-02-14T18:32:53.461Z,9.74
2024-02-14T18:35:40.235Z,9.73
2024-02-14T18:38:32.381Z,9.72
2024-02-14T18:41:17.993Z,9.72
2024-02-14T18:44:06.962Z,9.77
2024-02-14T18:46:52.996Z,9.79
2024-02-14T18:49:39.038Z,9.81
2024-02-14T18:52:24.905Z,9.82
2024-02-14T18:55:12.310Z,9.85
2024-02-14T18:57:58.202Z,9.87
2024-02-14T19:00:44.099Z,9.89
2024-02-14T19:03:31.317Z,9.89
2024-02-14T19:06:18.081Z,9.88
2024-02-14T19:09:04.698Z,9.86
2024-02-14T19:11:51.085Z,9.85
2024-02-14T19:14:37.529Z,9.83
2024-02-14T19:17:23.222Z,9.82
2024-02-14T19:20:09.811Z,9.82
2024-02-14T19:22:55.314Z,9.80
2024-02-14T19:25:41.016Z,9.79
2024-02-14T19:28:26.741Z,9.80
2024-02-14T19:31:12.258Z,9.77
2024-02-14T19:33:58.219Z,9.75
2024-02-14T19:36:43.823Z,9.72
2024-02-14T19:39:31.156Z,9.69
2024-02-14T19:42:17.160Z,9.67
2024-02-14T19:45:02.748Z,9.67
2024-02-14T19:47:52.446Z,9.65
2024-02-14T19:50:38.354Z,9.62
2024-02-14T19:53:24.249Z,9.61
2024-02-14T19:56:09.705Z,9.61
2024-02-14T19:58:55.324Z,9.57
2024-02-14T20:01:40.995Z,9.55
2024-02-14T20:04:28.056Z,9.53
2024-02-14T20:07:13.667Z,9.53
2024-02-14T20:09:59.476Z,9.52
2024-02-14T20:12:46.022Z,9.50
2024-02-14T20:15:31.786Z,9.50
2024-02-14T20:18:17.625Z,9.51
2024-02-14T20:21:03.734Z,9.53
2024-02-14T20:23:49.606Z,9.54
2024-02-14T20:26:35.813Z,9.58
2024-02-14T20:29:21.971Z,9.63
2024-02-14T20:32:08.716Z,9.66
2024-02-14T20:34:54.620Z,9.69
2024-02-14T20:37:44.561Z,9.74
2024-02-14T20:40:32.628Z,9.79
2024-02-14T20:43:18.161Z,9.82
2024-02-14T20:46:03.790Z,9.84
2024-02-14T20:48:49.499Z,9.83
2024-02-14T20:51:38.371Z,9.80
2024-02-14T20:54:23.872Z,9.79
2024-02-14T20:57:09.506Z,9.78
2024-02-14T20:59:56.080Z,9.81
2024-02-14T21:02:41.739Z,9.78
2024-02-14T21:05:27.294Z,9.77
2024-02-14T21:08:12.776Z,9.74
2024-02-14T21:10:58.165Z,9.68
2024-02-14T21:13:43.949Z,9.64
2024-02-14T21:16:29.773Z,9.62
2024-02-14T21:19:15.423Z,9.57
2024-02-14T21:22:01.074Z,9.53
2024-02-14T21:24:46.508Z,9.49
2024-02-14T21:27:32.230Z,9.44
2024-02-14T21:30:18.130Z,9.41
2024-02-14T21:33:03.936Z,9.37
2024-02-14T21:35:51.100Z,9.35
2024-02-14T21:38:36.986Z,9.32
2024-02-14T21:41:22.611Z,9.27
2024-02-14T21:44:10.090Z,9.23
2024-02-14T21:46:57.092Z,9.19
2024-02-14T21:49:43.597Z,9.15
2024-02-14T21:52:31.090Z,9.15
2024-02-14T21:55:16.936Z,9.13
2024-02-14T21:58:02.615Z,9.11
2024-02-14T22:00:48.310Z,9.11
2024-02-14T22:03:34.521Z,9.13
2024-02-14T22:06:20.650Z,9.12
2024-02-14T22:09:07.277Z,9.12
2024-02-14T22:11:53.191Z,9.13
2024-02-14T22:14:39.276Z,9.12
2024-02-14T22:17:24.825Z,9.10
2024-02-14T22:20:13.720Z,9.06
2024-02-14T22:22:59.350Z,9.01
2024-02-14T22:25:44.677Z,9.00
2024-02-14T22:28:35.812Z,8.98
2024-02-14T22:31:21.495Z,8.99
2024-02-14T22:34:13.029Z,9.00
2024-02-14T22:36:58.696Z,9.04
2024-02-14T22:39:44.276Z,9.10
2024-02-14T22:42:30.098Z,9.10
2024-02-14T22:45:15.714Z,9.10
2024-02-14T22:48:03.236Z,9.10
2024-02-14T22:50:49.048Z,9.08
2024-02-14T22:53:35.160Z,9.07
2024-02-14T22:56:21.240Z,9.05
2024-02-14T22:59:06.819Z,9.06
2024-02-14T23:01:53.072Z,9.04
2024-02-14T23:04:39.529Z,9.02
2024-02-14T23:07:25.790Z,9.11
2024-02-14T23:10:11.453Z,9.26
2024-02-14T23:12:57.396Z,9.33
2024-02-14T23:15:43.658Z,9.52
2024-02-14T23:18:29.742Z,9.69
2024-02-14T23:21:16.095Z,9.83
2024-02-14T23:24:02.659Z,9.90
2024-02-14T23:26:48.149Z,9.96
2024-02-14T23:29:33.966Z,9.98
2024-02-14T23:32:19.825Z,10.03
2024-02-14T23:35:11.650Z,10.11
2024-02-14T23:37:57.686Z,10.18
2024-02-14T23:40:43.247Z,10.18
2024-02-14T23:43:28.939Z,10.18
2024-02-14T23:46:14.991Z,10.17
2024-02-14T23:49:00.645Z,10.18
2024-02-14T23:51:46.757Z,10.14
2024-02-14T23:54:32.457Z,10.08
2024-02-14T23:57:18.046Z,10.11
